Time;durP1;ratioP1;P1;durP2;ratioP2;P2;SDS_P1;SDS_P2;PMS_P1;PMS_P2;Temp;Humidity;BMP_temperature;BMP_pressure;BME280_temperature;BME280_humidity;BME280_pressure;Samples;Min_cycle;Max_cycle;Signal;HPM_P1;HPM_P2
2023/07/26 06:19:48;;;;;;;3.30;1.60;;;20.00;99.90;;;;;;5704963;24;20286;31
2023/07/26 06:22:15;;;;;;;3.27;1.53;;;20.20;99.90;;;;;;4751191;30;20288;-80
2023/07/26 06:24:42;;;;;;;5.07;1.70;;;20.40;99.90;;;;;;4738215;30;20490;-80
2023/07/26 06:27:10;;;;;;;1.93;1.50;;;20.40;99.90;;;;;;4738597;30;20237;-81
2023/07/26 06:29:37;;;;;;;4.07;1.40;;;20.50;99.90;;;;;;4738273;30;20206;-81
2023/07/26 06:32:04;;;;;;;3.60;1.33;;;20.60;99.90;;;;;;4740220;30;20312;-82
2023/07/26 06:34:31;;;;;;;2.63;1.43;;;20.50;99.90;;;;;;4738809;30;20199;-82
2023/07/26 06:36:58;;;;;;;4.77;1.83;;;20.40;99.90;;;;;;4724510;30;20226;-82
2023/07/26 06:39:26;;;;;;;2.63;1.33;;;20.40;99.90;;;;;;4753189;30;20563;-81
2023/07/26 06:41:54;;;;;;;4.60;1.37;;;20.60;99.90;;;;;;4738314;30;20257;-84
2023/07/26 06:44:21;;;;;;;4.67;1.63;;;20.50;99.90;;;;;;4724075;30;20211;-81
2023/07/26 06:46:48;;;;;;;3.57;1.60;;;20.70;99.90;;;;;;4753725;30;20297;-83
2023/07/26 06:49:15;;;;;;;3.20;1.37;;;20.80;99.90;;;;;;4739775;30;20272;-83
2023/07/26 06:51:43;;;;;;;3.30;1.50;;;20.70;99.90;;;;;;4722138;30;20237;-81
2023/07/26 06:54:10;;;;;;;4.03;1.40;;;20.80;99.90;;;;;;4739917;30;20318;-82
2023/07/26 06:56:38;;;;;;;7.07;1.80;;;20.80;99.90;;;;;;4738564;30;20226;-82
2023/07/26 06:59:11;;;;;;;1.60;1.40;;;20.90;99.90;;;;;;4738799;30;20229;-80
2023/07/26 07:01:38;;;;;;;3.23;1.70;;;20.80;99.90;;;;;;4737909;30;20571;-81
2023/07/26 07:04:05;;;;;;;5.83;1.97;;;21.00;99.90;;;;;;4737582;30;20194;-81
2023/07/26 07:06:41;;;;;;;3.27;1.40;;;21.00;99.90;;;;;;4738949;30;20260;-81
2023/07/26 07:09:08;;;;;;;2.33;1.30;;;21.10;99.90;;;;;;4739106;30;20202;-80
2023/07/26 07:11:35;;;;;;;1.70;1.30;;;21.20;99.90;;;;;;4739027;30;20241;-81
2023/07/26 07:14:03;;;;;;;4.03;1.87;;;21.40;99.90;;;;;;4752381;30;20233;-82
2023/07/26 07:16:30;;;;;;;3.00;1.40;;;21.50;99.90;;;;;;4752628;30;20289;-81
2023/07/26 07:18:57;;;;;;;4.20;1.50;;;21.60;99.90;;;;;;4738267;30;20519;-81
2023/07/26 07:21:24;;;;;;;2.57;1.40;;;21.60;99.90;;;;;;4737849;30;20238;-82
2023/07/26 07:33:26;;;;;;;5.43;2.00;;;22.50;99.90;;;;;;5336715;24;20238;-83
2023/07/26 08:12:04;;;;;;;;;;;;;;;;;;;;;
2023/07/26 12:42:29;;;;;;;8.73;3.60;;;17.20;99.90;;;;;;5689669;24;20193;-85
2023/07/26 12:44:56;;;;;;;6.77;3.23;;;17.00;99.90;;;;;;4737046;30;20222;-81
2023/07/26 12:47:24;;;;;;;7.57;3.27;;;16.70;99.90;;;;;;4736305;30;20654;-79
2023/07/26 12:49:56;;;;;;;6.17;3.47;;;16.70;99.90;;;;;;4737577;30;20186;-80
2023/07/26 12:52:23;;;;;;;6.80;3.67;;;16.80;99.90;;;;;;4736480;30;20390;-81
2023/07/26 12:54:50;;;;;;;9.27;4.20;;;16.70;99.90;;;;;;4737262;30;20251;-82
2023/07/26 12:57:17;;;;;;;9.37;4.50;;;16.60;99.90;;;;;;4737607;30;20214;-83
2023/07/26 12:59:44;;;;;;;8.67;4.67;;;16.50;99.90;;;;;;4738145;30;20202;-85
2023/07/26 13:02:15;;;;;;;12.50;4.70;;;16.50;99.90;;;;;;4736837;30;20236;-83
2023/07/26 13:04:42;;;;;;;11.20;4.53;;;16.60;99.90;;;;;;4736998;30;20214;-83
2023/07/26 13:07:09;;;;;;;8.17;4.50;;;16.50;99.90;;;;;;4722520;30;20234;-81
2023/07/26 13:09:36;;;;;;;8.03;4.80;;;16.40;99.90;;;;;;4737750;30;20204;-80
2023/07/26 13:12:03;;;;;;;8.70;4.87;;;16.40;99.90;;;;;;4736524;30;20230;-81
2023/07/26 13:14:31;;;;;;;11.23;4.90;;;16.40;99.90;;;;;;4736578;30;20202;-80
2023/07/26 13:16:58;;;;;;;8.83;5.03;;;16.40;99.90;;;;;;4736491;30;20307;-83
2023/07/26 13:19:25;;;;;;;11.47;5.73;;;16.30;99.90;;;;;;4722083;30;20210;-82
2023/07/26 13:21:52;;;;;;;9.43;5.13;;;16.30;99.90;;;;;;4737762;30;20305;-79
2023/07/26 13:24:19;;;;;;;7.80;4.97;;;16.20;99.90;;;;;;4737935;30;20206;-81
2023/07/26 13:26:49;;;;;;;7.97;4.40;;;16.10;99.90;;;;;;4736805;30;20234;-83
2023/07/26 13:29:17;;;;;;;9.70;4.80;;;15.90;99.90;;;;;;4722990;30;20194;-83
2023/07/26 13:31:44;;;;;;;7.20;4.73;;;16.00;99.90;;;;;;4722545;30;20230;-82
2023/07/26 13:34:42;;;;;;;10.60;4.60;;;15.80;99.90;;;;;;4738282;30;20190;-84
2023/07/26 13:37:12;;;;;;;10.80;4.30;;;15.80;99.90;;;;;;4728389;30;20237;-83
2023/07/26 13:39:39;;;;;;;8.03;4.97;;;15.80;99.90;;;;;;4740426;30;20207;-85
2023/07/26 13:42:07;;;;;;;9.17;4.60;;;15.80;99.90;;;;;;4725150;30;20317;-82
2023/07/26 13:44:34;;;;;;;9.43;4.97;;;15.80;99.90;;;;;;4739863;30;20763;-83
2023/07/26 13:47:01;;;;;;;10.17;5.10;;;15.60;99.90;;;;;;4725127;30;20233;-83
2023/07/26 13:49:28;;;;;;;11.43;5.40;;;15.70;99.90;;;;;;4739224;30;20206;-82
2023/07/26 13:52:00;;;;;;;9.73;5.63;;;15.70;99.90;;;;;;4740450;30;20676;-82
2023/07/26 13:54:28;;;;;;;10.40;6.00;;;15.60;99.90;;;;;;4725162;30;20206;-81
2023/07/26 13:56:55;;;;;;;11.13;6.07;;;15.70;99.90;;;;;;4739129;30;20226;-83
2023/07/26 14:02:15;;;;;;;13.83;6.43;;;15.70;99.90;;;;;;4738410;30;20336;-87
2023/07/26 14:04:46;;;;;;;9.40;5.30;;;15.70;99.90;;;;;;4740676;30;20289;-85
2023/07/26 14:07:14;;;;;;;12.43;6.33;;;15.70;99.90;;;;;;4740765;30;20299;-85
2023/07/26 14:09:47;;;;;;;11.77;5.53;;;15.80;99.90;;;;;;4725914;30;20217;-83
2023/07/26 14:12:15;;;;;;;9.60;5.80;;;15.90;99.90;;;;;;4740348;30;20570;-84
2023/07/26 14:14:48;;;;;;;10.13;5.70;;;15.80;99.90;;;;;;4739129;30;20233;-84
2023/07/26 14:17:15;;;;;;;12.77;5.77;;;15.70;99.90;;;;;;4739558;30;20366;-83
2023/07/26 14:19:43;;;;;;;11.13;6.00;;;15.80;99.90;;;;;;4724563;30;20242;-83
2023/07/26 14:22:12;;;;;;;11.67;5.70;;;15.80;99.90;;;;;;4738113;30;20317;-83
2023/07/26 14:24:42;;;;;;;10.93;5.80;;;15.80;99.90;;;;;;4739087;30;20206;-83
2023/07/26 14:27:09;;;;;;;11.80;5.50;;;15.80;99.90;;;;;;4738804;30;20222;-84
2023/07/26 14:29:44;;;;;;;9.17;5.53;;;15.80;99.90;;;;;;4739921;30;20183;-85
2023/07/26 14:32:14;;;;;;;9.60;5.27;;;15.70;99.90;;;;;;4738730;30;20634;-84
2023/07/26 14:34:48;;;;;;;9.53;4.90;;;15.70;99.90;;;;;;4740505;30;20277;-84
2023/07/26 14:37:29;;;;;;;8.50;4.57;;;15.50;99.90;;;;;;4739011;30;20280;-84
2023/07/26 14:39:56;;;;;;;7.17;4.07;;;15.60;99.90;;;;;;4724464;30;20210;-84
2023/07/26 14:42:24;;;;;;;8.63;4.20;;;15.40;99.90;;;;;;4724625;30;20240;-84
2023/07/26 14:44:51;;;;;;;7.13;4.03;;;15.40;99.90;;;;;;4724216;30;20268;-84
2023/07/26 14:47:23;;;;;;;9.67;4.33;;;15.40;99.90;;;;;;4738596;30;20227;-84
2023/07/26 14:49:52;;;;;;;8.90;4.40;;;15.40;99.90;;;;;;4724999;30;20213;-83
2023/07/26 14:52:46;;;;;;;9.00;4.43;;;15.30;99.90;;;;;;4738885;30;20226;-84
2023/07/26 14:55:18;;;;;;;9.53;4.97;;;15.30;99.90;;;;;;4738594;30;20232;-84
2023/07/26 14:57:49;;;;;;;9.67;5.03;;;15.20;99.90;;;;;;4725295;30;20284;-84
2023/07/26 15:00:25;;;;;;;9.77;5.40;;;15.20;99.90;;;;;;4725287;30;20245;-85
2023/07/26 15:03:11;;;;;;;10.33;5.50;;;15.10;99.90;;;;;;4741559;30;20218;-84
2023/07/26 15:05:48;;;;;;;9.10;5.50;;;15.20;99.90;;;;;;4725186;30;20498;-85
2023/07/26 15:08:24;;;;;;;10.73;5.60;;;15.20;99.90;;;;;;4738793;30;20225;-84
2023/07/26 15:10:53;;;;;;;12.00;5.57;;;15.20;99.90;;;;;;4724443;30;20257;-84
2023/07/26 15:13:24;;;;;;;10.40;5.87;;;15.20;99.90;;;;;;4738391;30;20218;-84
2023/07/26 15:15:56;;;;;;;8.83;6.00;;;15.30;99.90;;;;;;4738426;30;20281;-82
2023/07/26 15:18:27;;;;;;;8.27;5.20;;;15.30;99.90;;;;;;4738166;30;20320;-82
2023/07/26 15:21:00;;;;;;;8.43;5.70;;;15.40;99.90;;;;;;4723491;30;20582;-84
2023/07/26 15:23:29;;;;;;;11.60;5.80;;;15.20;99.90;;;;;;4737561;30;20498;-83
2023/07/26 15:26:03;;;;;;;10.27;5.40;;;15.20;99.90;;;;;;4737821;30;20578;-84
2023/07/26 15:28:40;;;;;;;10.87;5.47;;;15.10;99.90;;;;;;4723980;30;20225;-83
2023/07/26 15:31:14;;;;;;;8.83;5.77;;;15.10;99.90;;;;;;4737565;30;20292;-83
2023/07/26 15:33:49;;;;;;;9.67;6.10;;;15.20;99.90;;;;;;4738337;30;20182;-83
2023/07/26 15:36:17;;;;;;;13.20;6.27;;;15.20;99.90;;;;;;4738280;30;20203;-83
2023/07/26 15:38:49;;;;;;;11.47;6.07;;;15.10;99.90;;;;;;4724014;30;20205;-82
2023/07/26 15:41:19;;;;;;;9.67;6.17;;;15.20;99.90;;;;;;4737569;30;20264;-83
2023/07/26 15:43:53;;;;;;;10.17;5.30;;;15.20;99.90;;;;;;4737991;30;20234;-83
2023/07/26 15:46:41;;;;;;;8.97;5.47;;;15.10;99.90;;;;;;4738571;30;20628;-85
2023/07/26 15:49:28;;;;;;;10.67;6.10;;;15.00;99.90;;;;;;4737578;30;20248;-85
2023/07/26 15:52:03;;;;;;;10.23;5.50;;;15.10;99.90;;;;;;4724262;30;20257;-82
2023/07/26 15:54:32;;;;;;;10.60;6.10;;;15.00;99.90;;;;;;4724020;30;20233;-83
2023/07/26 15:57:03;;;;;;;10.73;5.97;;;14.90;99.90;;;;;;4723162;30;20514;-82
2023/07/26 15:59:32;;;;;;;10.03;5.60;;;14.90;99.90;;;;;;4723421;30;20505;-83
2023/07/26 16:01:59;;;;;;;9.63;6.03;;;14.90;99.90;;;;;;4722941;30;20274;-85
2023/07/26 16:04:27;;;;;;;9.80;5.90;;;14.90;99.90;;;;;;4738159;30;20210;-84
2023/07/26 21:39:38;;;;;;;20.37;12.90;;;14.70;99.90;;;;;;4357038;24;20252;-80
2023/07/26 21:42:41;;;;;;;20.83;12.60;;;14.70;99.90;;;;;;4670921;30;20231;-79
2023/07/26 21:45:34;;;;;;;22.17;13.80;;;14.70;99.90;;;;;;4671097;30;20202;-80
2023/07/26 22:07:49;;;;;;;21.60;14.13;;;14.60;99.90;;;;;;5396694;24;20250;-81
2023/07/26 22:39:23;;;;;;;16.73;9.73;;;14.50;99.90;;;;;;4383696;24;20250;-82
